Kiahsville, West Virginia
Current Conditions -  °F | °C
As of 2:51 PM on Friday 21 Nov 2014 (Local Time) from KHTS Reporting Station
Clear Clear  
Wind Chill: 31°   Ceiling: Unl
Heat Index: 36°   Visibility: 10mi
Dew Point:   Wind: 6mph
Humidity: 31%   Direction: 30°NNE
Pressure: 30.48"   Gusts: NA
Location:  38.09°N, 82.33°W
Report Text: KHTS 211951Z 03005KT 10SM CLR 02/M13 A3048 RMK AO2 SLP330 T00221133
Loading
Personal Weather Stations






























Interactive Weather Map New forecast layout! Learn more

10-Day Weather Forecast

Advertisements
Track Severe Weather on mobile